Campton, New Hampshire
Current Conditions -  °F | °C
As of 8:15 PM on Tuesday 27 Jan 2015 (Local Time) from K1P1 Reporting Station
Light Snow Light Snow  
Wind Chill: -5°   Ceiling: 9000
Heat Index: 10°   Visibility: 7mi
Dew Point:   Wind: 13mph
Humidity: 81%   Direction: 290°WNW
Pressure: 29.69"   Gusts: 22mph
Location:  43.86°N, 71.65°W
Report Text: K1P1 280115Z AUTO 29011G19KT 7SM -SN SCT050 SCT070 OVC090 M12/M15 A2969 RMK AO2 T11201146
Loading
Personal Weather Stations






























Interactive Weather Map New forecast layout! Learn more

10-Day Weather Forecast

Advertisements
Track Severe Weather on mobile